sensor_id;sensor_type;location;lat;lon;timestamp;P1;durP1;ratioP1;P2;durP2;ratioP2
34481;SDS011;20720;48.886;9.388;2023-04-24T00:00:18;1.50;;;0.57;;
34481;SDS011;20720;48.886;9.388;2023-04-24T00:02:43;1.48;;;0.30;;
34481;SDS011;20720;48.886;9.388;2023-04-24T00:05:16;1.92;;;0.45;;
34481;SDS011;20720;48.886;9.388;2023-04-24T00:07:42;2.60;;;0.50;;
34481;SDS011;20720;48.886;9.388;2023-04-24T00:10:09;1.42;;;0.50;;
34481;SDS011;20720;48.886;9.388;2023-04-24T00:12:34;1.73;;;0.57;;
34481;SDS011;20720;48.886;9.388;2023-04-24T00:15:00;1.30;;;0.40;;
34481;SDS011;20720;48.886;9.388;2023-04-24T00:17:26;2.08;;;0.50;;
34481;SDS011;20720;48.886;9.388;2023-04-24T00:19:51;1.88;;;0.32;;
34481;SDS011;20720;48.886;9.388;2023-04-24T00:22:23;1.90;;;0.30;;
34481;SDS011;20720;48.886;9.388;2023-04-24T00:24:48;1.30;;;0.30;;
34481;SDS011;20720;48.886;9.388;2023-04-24T00:27:13;1.40;;;0.40;;
34481;SDS011;20720;48.886;9.388;2023-04-24T00:29:39;1.70;;;0.68;;
34481;SDS011;20720;48.886;9.388;2023-04-24T00:32:04;1.27;;;0.55;;
34481;SDS011;20720;48.886;9.388;2023-04-24T00:34:29;1.50;;;0.43;;
34481;SDS011;20720;48.886;9.388;2023-04-24T00:36:57;1.10;;;0.47;;
34481;SDS011;20720;48.886;9.388;2023-04-24T00:39:22;1.33;;;0.35;;
34481;SDS011;20720;48.886;9.388;2023-04-24T00:41:48;1.95;;;0.40;;
34481;SDS011;20720;48.886;9.388;2023-04-24T00:44:13;1.35;;;0.40;;
34481;SDS011;20720;48.886;9.388;2023-04-24T00:46:39;2.00;;;0.55;;
34481;SDS011;20720;48.886;9.388;2023-04-24T00:49:04;2.55;;;0.40;;
34481;SDS011;20720;48.886;9.388;2023-04-24T00:51:30;1.65;;;0.50;;
34481;SDS011;20720;48.886;9.388;2023-04-24T00:53:57;3.22;;;1.02;;
34481;SDS011;20720;48.886;9.388;2023-04-24T00:56:22;2.95;;;0.52;;
34481;SDS011;20720;48.886;9.388;2023-04-24T00:58:49;2.30;;;0.50;;
34481;SDS011;20720;48.886;9.388;2023-04-24T01:01:14;0.80;;;0.30;;
34481;SDS011;20720;48.886;9.388;2023-04-24T01:03:40;0.70;;;0.20;;
34481;SDS011;20720;48.886;9.388;2023-04-24T01:06:05;2.50;;;0.40;;
34481;SDS011;20720;48.886;9.388;2023-04-24T01:08:31;3.30;;;0.60;;
34481;SDS011;20720;48.886;9.388;2023-04-24T01:10:58;1.25;;;0.38;;
34481;SDS011;20720;48.886;9.388;2023-04-24T01:13:23;0.93;;;0.32;;
34481;SDS011;20720;48.886;9.388;2023-04-24T01:15:49;1.45;;;0.30;;
34481;SDS011;20720;48.886;9.388;2023-04-24T01:18:14;2.10;;;0.43;;
34481;SDS011;20720;48.886;9.388;2023-04-24T01:20:40;1.58;;;0.32;;
34481;SDS011;20720;48.886;9.388;2023-04-24T01:23:07;2.10;;;0.55;;
34481;SDS011;20720;48.886;9.388;2023-04-24T01:25:33;1.55;;;0.40;;
34481;SDS011;20720;48.886;9.388;2023-04-24T01:27:58;1.55;;;0.30;;
34481;SDS011;20720;48.886;9.388;2023-04-24T01:30:24;1.63;;;0.50;;
34481;SDS011;20720;48.886;9.388;2023-04-24T01:32:50;1.70;;;0.30;;
34481;SDS011;20720;48.886;9.388;2023-04-24T01:35:16;1.63;;;0.30;;
34481;SDS011;20720;48.886;9.388;2023-04-24T01:37:42;1.00;;;0.30;;
34481;SDS011;20720;48.886;9.388;2023-04-24T01:40:07;1.95;;;0.40;;
34481;SDS011;20720;48.886;9.388;2023-04-24T01:42:33;2.75;;;0.60;;
34481;SDS011;20720;48.886;9.388;2023-04-24T01:44:59;0.68;;;0.30;;
34481;SDS011;20720;48.886;9.388;2023-04-24T01:47:25;1.52;;;0.40;;
34481;SDS011;20720;48.886;9.388;2023-04-24T01:49:50;2.63;;;0.60;;
34481;SDS011;20720;48.886;9.388;2023-04-24T01:52:16;1.73;;;0.45;;
34481;SDS011;20720;48.886;9.388;2023-04-24T01:54:43;3.38;;;0.70;;
34481;SDS011;20720;48.886;9.388;2023-04-24T01:57:08;1.38;;;0.32;;
34481;SDS011;20720;48.886;9.388;2023-04-24T01:59:34;2.20;;;0.30;;
34481;SDS011;20720;48.886;9.388;2023-04-24T02:02:01;2.60;;;0.65;;
34481;SDS011;20720;48.886;9.388;2023-04-24T02:04:27;1.35;;;0.30;;
34481;SDS011;20720;48.886;9.388;2023-04-24T02:06:52;1.25;;;0.30;;
34481;SDS011;20720;48.886;9.388;2023-04-24T02:09:17;2.53;;;0.40;;
34481;SDS011;20720;48.886;9.388;2023-04-24T02:11:43;1.88;;;0.40;;
34481;SDS011;20720;48.886;9.388;2023-04-24T02:14:08;2.10;;;0.40;;
34481;SDS011;20720;48.886;9.388;2023-04-24T02:16:33;1.23;;;0.30;;
34481;SDS011;20720;48.886;9.388;2023-04-24T02:19:00;1.48;;;0.30;;
34481;SDS011;20720;48.886;9.388;2023-04-24T02:21:26;1.30;;;0.43;;
34481;SDS011;20720;48.886;9.388;2023-04-24T02:23:52;1.20;;;0.20;;
34481;SDS011;20720;48.886;9.388;2023-04-24T02:26:18;2.45;;;0.40;;
34481;SDS011;20720;48.886;9.388;2023-04-24T02:28:43;0.55;;;0.30;;
34481;SDS011;20720;48.886;9.388;2023-04-24T02:31:08;1.08;;;0.22;;
34481;SDS011;20720;48.886;9.388;2023-04-24T02:33:34;0.90;;;0.30;;
34481;SDS011;20720;48.886;9.388;2023-04-24T02:36:00;1.30;;;0.25;;
34481;SDS011;20720;48.886;9.388;2023-04-24T02:38:25;3.30;;;0.43;;
34481;SDS011;20720;48.886;9.388;2023-04-24T02:40:51;2.72;;;0.50;;
34481;SDS011;20720;48.886;9.388;2023-04-24T02:43:16;1.48;;;0.32;;
34481;SDS011;20720;48.886;9.388;2023-04-24T02:45:41;1.55;;;0.38;;
34481;SDS011;20720;48.886;9.388;2023-04-24T02:48:06;0.95;;;0.30;;
34481;SDS011;20720;48.886;9.388;2023-04-24T02:50:32;2.58;;;0.40;;
34481;SDS011;20720;48.886;9.388;2023-04-24T02:52:58;1.25;;;0.35;;
34481;SDS011;20720;48.886;9.388;2023-04-24T02:55:23;1.65;;;0.40;;
34481;SDS011;20720;48.886;9.388;2023-04-24T02:57:49;1.60;;;0.40;;
34481;SDS011;20720;48.886;9.388;2023-04-24T03:00:14;0.85;;;0.30;;
34481;SDS011;20720;48.886;9.388;2023-04-24T03:02:39;1.52;;;0.40;;
34481;SDS011;20720;48.886;9.388;2023-04-24T03:05:05;1.15;;;0.45;;
34481;SDS011;20720;48.886;9.388;2023-04-24T03:07:30;1.17;;;0.40;;
34481;SDS011;20720;48.886;9.388;2023-04-24T03:09:56;3.78;;;0.50;;
34481;SDS011;20720;48.886;9.388;2023-04-24T03:12:23;2.10;;;0.40;;
34481;SDS011;20720;48.886;9.388;2023-04-24T03:14:48;1.15;;;0.52;;
34481;SDS011;20720;48.886;9.388;2023-04-24T03:17:14;2.38;;;0.50;;
34481;SDS011;20720;48.886;9.388;2023-04-24T03:19:39;2.25;;;0.52;;
34481;SDS011;20720;48.886;9.388;2023-04-24T03:22:04;1.33;;;0.43;;
34481;SDS011;20720;48.886;9.388;2023-04-24T03:24:30;1.77;;;0.30;;
34481;SDS011;20720;48.886;9.388;2023-04-24T03:26:55;2.67;;;0.50;;
34481;SDS011;20720;48.886;9.388;2023-04-24T03:29:21;2.03;;;0.40;;
34481;SDS011;20720;48.886;9.388;2023-04-24T03:31:47;1.80;;;0.30;;
34481;SDS011;20720;48.886;9.388;2023-04-24T03:34:12;3.38;;;0.73;;
34481;SDS011;20720;48.886;9.388;2023-04-24T03:36:37;1.85;;;0.40;;
34481;SDS011;20720;48.886;9.388;2023-04-24T03:39:02;2.65;;;0.50;;
34481;SDS011;20720;48.886;9.388;2023-04-24T03:41:28;1.48;;;0.50;;
34481;SDS011;20720;48.886;9.388;2023-04-24T03:43:55;1.60;;;0.45;;
34481;SDS011;20720;48.886;9.388;2023-04-24T03:46:20;3.85;;;0.50;;
34481;SDS011;20720;48.886;9.388;2023-04-24T03:48:45;0.90;;;0.50;;
34481;SDS011;20720;48.886;9.388;2023-04-24T03:51:11;2.55;;;0.40;;
34481;SDS011;20720;48.886;9.388;2023-04-24T03:53:36;1.00;;;0.40;;
34481;SDS011;20720;48.886;9.388;2023-04-24T03:56:01;1.58;;;0.45;;
34481;SDS011;20720;48.886;9.388;2023-04-24T03:58:27;1.95;;;0.52;;
34481;SDS011;20720;48.886;9.388;2023-04-24T04:00:52;1.95;;;0.60;;
34481;SDS011;20720;48.886;9.388;2023-04-24T04:03:17;1.00;;;0.40;;
34481;SDS011;20720;48.886;9.388;2023-04-24T04:05:42;1.60;;;0.57;;
34481;SDS011;20720;48.886;9.388;2023-04-24T04:08:08;1.85;;;0.30;;
34481;SDS011;20720;48.886;9.388;2023-04-24T04:10:33;2.05;;;0.80;;
34481;SDS011;20720;48.886;9.388;2023-04-24T04:12:58;3.00;;;0.63;;
34481;SDS011;20720;48.886;9.388;2023-04-24T04:15:23;1.63;;;0.40;;
34481;SDS011;20720;48.886;9.388;2023-04-24T04:17:48;2.75;;;0.70;;
34481;SDS011;20720;48.886;9.388;2023-04-24T04:20:14;2.88;;;0.40;;
34481;SDS011;20720;48.886;9.388;2023-04-24T04:22:39;1.20;;;0.52;;
34481;SDS011;20720;48.886;9.388;2023-04-24T04:25:05;2.10;;;0.55;;
34481;SDS011;20720;48.886;9.388;2023-04-24T04:27:31;1.75;;;0.40;;
34481;SDS011;20720;48.886;9.388;2023-04-24T04:30:00;2.13;;;0.50;;
34481;SDS011;20720;48.886;9.388;2023-04-24T04:32:32;3.50;;;0.60;;
34481;SDS011;20720;48.886;9.388;2023-04-24T04:34:58;2.40;;;0.40;;
34481;SDS011;20720;48.886;9.388;2023-04-24T04:37:28;1.38;;;0.52;;
34481;SDS011;20720;48.886;9.388;2023-04-24T04:39:53;0.60;;;0.20;;
34481;SDS011;20720;48.886;9.388;2023-04-24T04:42:19;0.80;;;0.40;;
34481;SDS011;20720;48.886;9.388;2023-04-24T04:44:45;4.47;;;0.65;;
34481;SDS011;20720;48.886;9.388;2023-04-24T04:47:10;2.15;;;0.50;;
34481;SDS011;20720;48.886;9.388;2023-04-24T04:49:35;8.15;;;1.60;;
34481;SDS011;20720;48.886;9.388;2023-04-24T04:52:01;2.83;;;0.40;;
34481;SDS011;20720;48.886;9.388;2023-04-24T04:54:27;1.42;;;0.40;;
34481;SDS011;20720;48.886;9.388;2023-04-24T04:56:52;4.05;;;0.43;;
34481;SDS011;20720;48.886;9.388;2023-04-24T04:59:17;1.50;;;0.40;;
34481;SDS011;20720;48.886;9.388;2023-04-24T05:01:42;1.40;;;0.60;;
34481;SDS011;20720;48.886;9.388;2023-04-24T05:04:08;0.85;;;0.40;;
34481;SDS011;20720;48.886;9.388;2023-04-24T05:06:33;2.42;;;0.55;;
34481;SDS011;20720;48.886;9.388;2023-04-24T05:08:58;1.95;;;0.60;;
34481;SDS011;20720;48.886;9.388;2023-04-24T05:11:24;2.67;;;0.73;;
34481;SDS011;20720;48.886;9.388;2023-04-24T05:13:50;1.95;;;0.60;;
34481;SDS011;20720;48.886;9.388;2023-04-24T05:16:15;2.78;;;0.57;;
34481;SDS011;20720;48.886;9.388;2023-04-24T05:18:40;3.67;;;0.73;;
34481;SDS011;20720;48.886;9.388;2023-04-24T05:21:05;1.85;;;0.70;;
34481;SDS011;20720;48.886;9.388;2023-04-24T05:23:31;3.13;;;0.82;;
34481;SDS011;20720;48.886;9.388;2023-04-24T05:25:56;2.10;;;0.70;;
34481;SDS011;20720;48.886;9.388;2023-04-24T05:28:22;1.42;;;0.60;;
34481;SDS011;20720;48.886;9.388;2023-04-24T05:30:47;1.77;;;0.80;;
34481;SDS011;20720;48.886;9.388;2023-04-24T05:33:12;3.90;;;0.55;;
34481;SDS011;20720;48.886;9.388;2023-04-24T05:35:39;2.67;;;0.60;;
34481;SDS011;20720;48.886;9.388;2023-04-24T05:38:10;1.85;;;0.60;;
34481;SDS011;20720;48.886;9.388;2023-04-24T05:40:35;1.80;;;1.00;;
34481;SDS011;20720;48.886;9.388;2023-04-24T05:43:00;2.88;;;0.93;;
34481;SDS011;20720;48.886;9.388;2023-04-24T05:45:26;2.15;;;1.00;;
34481;SDS011;20720;48.886;9.388;2023-04-24T05:47:51;1.55;;;0.80;;
34481;SDS011;20720;48.886;9.388;2023-04-24T05:50:17;3.08;;;0.98;;
34481;SDS011;20720;48.886;9.388;2023-04-24T05:52:42;2.00;;;0.80;;
34481;SDS011;20720;48.886;9.388;2023-04-24T05:55:08;1.70;;;0.90;;
34481;SDS011;20720;48.886;9.388;2023-04-24T05:57:33;1.92;;;0.80;;
34481;SDS011;20720;48.886;9.388;2023-04-24T05:59:58;2.03;;;1.10;;
34481;SDS011;20720;48.886;9.388;2023-04-24T06:02:24;1.08;;;0.70;;
34481;SDS011;20720;48.886;9.388;2023-04-24T06:04:49;1.42;;;0.70;;
34481;SDS011;20720;48.886;9.388;2023-04-24T06:07:14;3.78;;;0.88;;
34481;SDS011;20720;48.886;9.388;2023-04-24T06:09:39;1.63;;;0.95;;
34481;SDS011;20720;48.886;9.388;2023-04-24T06:12:05;1.17;;;0.70;;
34481;SDS011;20720;48.886;9.388;2023-04-24T06:14:32;2.55;;;0.90;;
34481;SDS011;20720;48.886;9.388;2023-04-24T06:16:57;2.78;;;0.88;;
34481;SDS011;20720;48.886;9.388;2023-04-24T06:19:22;1.85;;;1.02;;
34481;SDS011;20720;48.886;9.388;2023-04-24T06:21:47;2.03;;;0.90;;
34481;SDS011;20720;48.886;9.388;2023-04-24T06:24:14;2.95;;;1.23;;
34481;SDS011;20720;48.886;9.388;2023-04-24T06:26:40;1.25;;;0.90;;
34481;SDS011;20720;48.886;9.388;2023-04-24T06:29:06;3.05;;;1.40;;
34481;SDS011;20720;48.886;9.388;2023-04-24T06:31:32;3.15;;;1.33;;
34481;SDS011;20720;48.886;9.388;2023-04-24T06:34:01;6.35;;;1.10;;
34481;SDS011;20720;48.886;9.388;2023-04-24T06:36:26;2.63;;;1.23;;
34481;SDS011;20720;48.886;9.388;2023-04-24T06:38:52;1.98;;;1.10;;
34481;SDS011;20720;48.886;9.388;2023-04-24T06:41:18;2.17;;;1.20;;
34481;SDS011;20720;48.886;9.388;2023-04-24T06:43:43;2.10;;;1.40;;
34481;SDS011;20720;48.886;9.388;2023-04-24T06:46:09;1.85;;;1.05;;
34481;SDS011;20720;48.886;9.388;2023-04-24T06:48:35;3.30;;;1.20;;
34481;SDS011;20720;48.886;9.388;2023-04-24T06:51:00;1.88;;;1.00;;
34481;SDS011;20720;48.886;9.388;2023-04-24T06:53:25;1.88;;;1.13;;
34481;SDS011;20720;48.886;9.388;2023-04-24T06:55:51;2.22;;;1.17;;
34481;SDS011;20720;48.886;9.388;2023-04-24T06:58:16;3.60;;;1.20;;
34481;SDS011;20720;48.886;9.388;2023-04-24T07:00:41;1.30;;;0.80;;
34481;SDS011;20720;48.886;9.388;2023-04-24T07:03:06;2.45;;;1.10;;
34481;SDS011;20720;48.886;9.388;2023-04-24T07:05:32;1.35;;;0.80;;
34481;SDS011;20720;48.886;9.388;2023-04-24T07:08:00;2.83;;;1.40;;
34481;SDS011;20720;48.886;9.388;2023-04-24T07:10:25;4.03;;;1.00;;
34481;SDS011;20720;48.886;9.388;2023-04-24T07:12:53;2.95;;;1.17;;
34481;SDS011;20720;48.886;9.388;2023-04-24T07:15:19;4.93;;;1.30;;
34481;SDS011;20720;48.886;9.388;2023-04-24T07:17:45;2.22;;;0.95;;
34481;SDS011;20720;48.886;9.388;2023-04-24T07:20:11;2.15;;;1.10;;
34481;SDS011;20720;48.886;9.388;2023-04-24T07:22:39;2.05;;;1.08;;
34481;SDS011;20720;48.886;9.388;2023-04-24T07:25:04;1.92;;;0.90;;
34481;SDS011;20720;48.886;9.388;2023-04-24T07:27:30;3.60;;;1.20;;
34481;SDS011;20720;48.886;9.388;2023-04-24T07:29:55;1.63;;;1.00;;
34481;SDS011;20720;48.886;9.388;2023-04-24T07:32:20;2.17;;;1.25;;
34481;SDS011;20720;48.886;9.388;2023-04-24T07:34:46;2.50;;;1.42;;
34481;SDS011;20720;48.886;9.388;2023-04-24T07:37:11;2.65;;;1.20;;
34481;SDS011;20720;48.886;9.388;2023-04-24T07:39:36;3.15;;;1.48;;
34481;SDS011;20720;48.886;9.388;2023-04-24T07:42:01;2.58;;;1.58;;
34481;SDS011;20720;48.886;9.388;2023-04-24T07:44:27;1.80;;;1.10;;
34481;SDS011;20720;48.886;9.388;2023-04-24T07:46:52;2.42;;;1.10;;
34481;SDS011;20720;48.886;9.388;2023-04-24T07:49:17;2.20;;;1.27;;
34481;SDS011;20720;48.886;9.388;2023-04-24T07:51:43;2.22;;;1.30;;
34481;SDS011;20720;48.886;9.388;2023-04-24T07:54:08;2.08;;;1.13;;
34481;SDS011;20720;48.886;9.388;2023-04-24T07:56:33;4.47;;;1.10;;
34481;SDS011;20720;48.886;9.388;2023-04-24T07:58:59;2.15;;;1.20;;
34481;SDS011;20720;48.886;9.388;2023-04-24T08:01:26;1.55;;;0.85;;
34481;SDS011;20720;48.886;9.388;2023-04-24T08:03:51;2.10;;;1.00;;
34481;SDS011;20720;48.886;9.388;2023-04-24T08:06:17;2.03;;;1.02;;
34481;SDS011;20720;48.886;9.388;2023-04-24T08:08:42;3.13;;;1.08;;
34481;SDS011;20720;48.886;9.388;2023-04-24T08:11:07;1.75;;;0.85;;
34481;SDS011;20720;48.886;9.388;2023-04-24T08:13:33;1.95;;;0.90;;
34481;SDS011;20720;48.886;9.388;2023-04-24T08:15:58;2.13;;;0.98;;
34481;SDS011;20720;48.886;9.388;2023-04-24T08:18:23;2.10;;;1.00;;
34481;SDS011;20720;48.886;9.388;2023-04-24T08:20:49;2.25;;;1.20;;
34481;SDS011;20720;48.886;9.388;2023-04-24T08:23:14;2.83;;;1.20;;
34481;SDS011;20720;48.886;9.388;2023-04-24T08:25:39;2.55;;;1.20;;
34481;SDS011;20720;48.886;9.388;2023-04-24T08:28:05;4.10;;;1.10;;
34481;SDS011;20720;48.886;9.388;2023-04-24T08:30:31;2.38;;;1.08;;
34481;SDS011;20720;48.886;9.388;2023-04-24T08:32:56;2.40;;;1.10;;
34481;SDS011;20720;48.886;9.388;2023-04-24T08:35:22;3.30;;;1.10;;
34481;SDS011;20720;48.886;9.388;2023-04-24T08:37:48;2.63;;;0.98;;
34481;SDS011;20720;48.886;9.388;2023-04-24T08:40:14;2.83;;;1.05;;
34481;SDS011;20720;48.886;9.388;2023-04-24T08:42:41;2.08;;;1.20;;
34481;SDS011;20720;48.886;9.388;2023-04-24T08:45:12;1.45;;;0.90;;
34481;SDS011;20720;48.886;9.388;2023-04-24T08:47:38;1.65;;;0.80;;
34481;SDS011;20720;48.886;9.388;2023-04-24T08:50:05;1.90;;;0.93;;
34481;SDS011;20720;48.886;9.388;2023-04-24T08:52:32;1.58;;;0.80;;
34481;SDS011;20720;48.886;9.388;2023-04-24T08:54:59;1.75;;;0.80;;
34481;SDS011;20720;48.886;9.388;2023-04-24T08:57:26;4.05;;;0.98;;
34481;SDS011;20720;48.886;9.388;2023-04-24T08:59:52;2.70;;;0.82;;
34481;SDS011;20720;48.886;9.388;2023-04-24T09:02:18;1.73;;;0.75;;
34481;SDS011;20720;48.886;9.388;2023-04-24T09:04:44;2.92;;;0.90;;
34481;SDS011;20720;48.886;9.388;2023-04-24T09:07:10;2.28;;;0.70;;
34481;SDS011;20720;48.886;9.388;2023-04-24T09:09:37;3.75;;;0.80;;
34481;SDS011;20720;48.886;9.388;2023-04-24T09:12:03;2.00;;;0.80;;
34481;SDS011;20720;48.886;9.388;2023-04-24T09:14:29;2.55;;;0.68;;
34481;SDS011;20720;48.886;9.388;2023-04-24T09:16:56;1.45;;;0.60;;
34481;SDS011;20720;48.886;9.388;2023-04-24T09:19:21;2.97;;;0.75;;
34481;SDS011;20720;48.886;9.388;2023-04-24T09:21:47;4.25;;;0.70;;
34481;SDS011;20720;48.886;9.388;2023-04-24T09:24:17;3.22;;;0.75;;
34481;SDS011;20720;48.886;9.388;2023-04-24T09:26:55;1.33;;;0.60;;
34481;SDS011;20720;48.886;9.388;2023-04-24T09:29:23;1.95;;;0.80;;
34481;SDS011;20720;48.886;9.388;2023-04-24T09:31:49;1.75;;;0.80;;
34481;SDS011;20720;48.886;9.388;2023-04-24T09:34:14;1.85;;;0.90;;
34481;SDS011;20720;48.886;9.388;2023-04-24T09:36:45;2.75;;;0.80;;
34481;SDS011;20720;48.886;9.388;2023-04-24T09:39:11;2.58;;;0.80;;
34481;SDS011;20720;48.886;9.388;2023-04-24T09:41:50;1.40;;;0.60;;
34481;SDS011;20720;48.886;9.388;2023-04-24T09:44:17;2.40;;;0.77;;
34481;SDS011;20720;48.886;9.388;2023-04-24T09:46:48;1.27;;;0.50;;
34481;SDS011;20720;48.886;9.388;2023-04-24T09:49:16;1.27;;;0.60;;
34481;SDS011;20720;48.886;9.388;2023-04-24T09:51:45;3.38;;;0.90;;
34481;SDS011;20720;48.886;9.388;2023-04-24T09:54:28;2.17;;;0.68;;
34481;SDS011;20720;48.886;9.388;2023-04-24T09:56:54;1.83;;;0.68;;
34481;SDS011;20720;48.886;9.388;2023-04-24T09:59:20;1.67;;;0.77;;
34481;SDS011;20720;48.886;9.388;2023-04-24T10:01:45;1.70;;;0.80;;
34481;SDS011;20720;48.886;9.388;2023-04-24T10:04:23;1.27;;;0.47;;
34481;SDS011;20720;48.886;9.388;2023-04-24T10:06:50;1.20;;;0.68;;
34481;SDS011;20720;48.886;9.388;2023-04-24T10:09:18;1.65;;;0.82;;
34481;SDS011;20720;48.886;9.388;2023-04-24T10:11:45;1.58;;;0.52;;
34481;SDS011;20720;48.886;9.388;2023-04-24T10:14:12;1.25;;;0.68;;
34481;SDS011;20720;48.886;9.388;2023-04-24T10:16:39;1.73;;;0.80;;
34481;SDS011;20720;48.886;9.388;2023-04-24T10:19:06;2.65;;;0.70;;
34481;SDS011;20720;48.886;9.388;2023-04-24T10:21:32;2.28;;;0.60;;
34481;SDS011;20720;48.886;9.388;2023-04-24T10:23:59;1.52;;;0.57;;
34481;SDS011;20720;48.886;9.388;2023-04-24T10:26:25;1.35;;;0.57;;
34481;SDS011;20720;48.886;9.388;2023-04-24T10:28:51;1.38;;;0.70;;
34481;SDS011;20720;48.886;9.388;2023-04-24T10:31:17;1.90;;;0.80;;
34481;SDS011;20720;48.886;9.388;2023-04-24T10:33:43;2.33;;;0.60;;
34481;SDS011;20720;48.886;9.388;2023-04-24T10:36:11;1.40;;;0.70;;
34481;SDS011;20720;48.886;9.388;2023-04-24T10:38:39;1.20;;;0.70;;
34481;SDS011;20720;48.886;9.388;2023-04-24T10:41:07;1.73;;;0.70;;
34481;SDS011;20720;48.886;9.388;2023-04-24T10:43:34;2.22;;;0.75;;
34481;SDS011;20720;48.886;9.388;2023-04-24T10:46:00;2.42;;;1.10;;
34481;SDS011;20720;48.886;9.388;2023-04-24T10:48:32;2.85;;;0.90;;
34481;SDS011;20720;48.886;9.388;2023-04-24T10:50:59;1.52;;;0.73;;
34481;SDS011;20720;48.886;9.388;2023-04-24T10:53:27;2.05;;;1.05;;
34481;SDS011;20720;48.886;9.388;2023-04-24T10:55:57;1.48;;;0.75;;
34481;SDS011;20720;48.886;9.388;2023-04-24T10:58:24;2.22;;;0.80;;
34481;SDS011;20720;48.886;9.388;2023-04-24T11:01:00;3.40;;;1.05;;
34481;SDS011;20720;48.886;9.388;2023-04-24T11:03:26;2.20;;;0.80;;
34481;SDS011;20720;48.886;9.388;2023-04-24T11:06:00;3.67;;;1.08;;
34481;SDS011;20720;48.886;9.388;2023-04-24T11:11:07;1.88;;;0.80;;
34481;SDS011;20720;48.886;9.388;2023-04-24T11:21:42;1.63;;;0.80;;
34481;SDS011;20720;48.886;9.388;2023-04-24T11:24:27;2.58;;;1.08;;
34481;SDS011;20720;48.886;9.388;2023-04-24T11:27:16;3.33;;;0.88;;
34481;SDS011;20720;48.886;9.388;2023-04-24T11:29:47;1.83;;;0.93;;
34481;SDS011;20720;48.886;9.388;2023-04-24T11:35:06;3.20;;;0.82;;
34481;SDS011;20720;48.886;9.388;2023-04-24T11:39:59;1.45;;;0.60;;
34481;SDS011;20720;48.886;9.388;2023-04-24T11:42:24;1.40;;;0.70;;
34481;SDS011;20720;48.886;9.388;2023-04-24T11:44:53;1.27;;;0.80;;
34481;SDS011;20720;48.886;9.388;2023-04-24T11:47:26;1.00;;;0.70;;
34481;SDS011;20720;48.886;9.388;2023-04-24T11:49:58;1.20;;;0.90;;
34481;SDS011;20720;48.886;9.388;2023-04-24T11:52:23;2.47;;;0.90;;
34481;SDS011;20720;48.886;9.388;2023-04-24T11:54:49;2.95;;;1.27;;
34481;SDS011;20720;48.886;9.388;2023-04-24T11:57:15;2.40;;;1.13;;
34481;SDS011;20720;48.886;9.388;2023-04-24T11:59:40;2.67;;;0.80;;
34481;SDS011;20720;48.886;9.388;2023-04-24T12:02:06;1.35;;;0.80;;
34481;SDS011;20720;48.886;9.388;2023-04-24T12:04:38;2.53;;;1.02;;
34481;SDS011;20720;48.886;9.388;2023-04-24T12:07:05;1.95;;;0.77;;
34481;SDS011;20720;48.886;9.388;2023-04-24T12:09:45;2.22;;;1.13;;
34481;SDS011;20720;48.886;9.388;2023-04-24T12:12:12;1.40;;;0.60;;
34481;SDS011;20720;48.886;9.388;2023-04-24T12:14:47;2.03;;;1.05;;
34481;SDS011;20720;48.886;9.388;2023-04-24T12:17:13;1.77;;;0.80;;
34481;SDS011;20720;48.886;9.388;2023-04-24T12:19:44;1.60;;;0.63;;
34481;SDS011;20720;48.886;9.388;2023-04-24T12:22:10;2.03;;;1.00;;
34481;SDS011;20720;48.886;9.388;2023-04-24T12:24:54;1.42;;;0.80;;
34481;SDS011;20720;48.886;9.388;2023-04-24T12:27:21;2.30;;;0.90;;
34481;SDS011;20720;48.886;9.388;2023-04-24T12:29:56;2.95;;;1.20;;
34481;SDS011;20720;48.886;9.388;2023-04-24T12:32:22;2.40;;;1.00;;
34481;SDS011;20720;48.886;9.388;2023-04-24T12:34:49;2.00;;;0.90;;
34481;SDS011;20720;48.886;9.388;2023-04-24T12:37:16;1.77;;;0.70;;
34481;SDS011;20720;48.886;9.388;2023-04-24T12:40:02;2.63;;;1.00;;
34481;SDS011;20720;48.886;9.388;2023-04-24T12:42:29;1.70;;;1.00;;
34481;SDS011;20720;48.886;9.388;2023-04-24T12:44:56;2.20;;;1.02;;
34481;SDS011;20720;48.886;9.388;2023-04-24T12:47:24;2.83;;;1.20;;
34481;SDS011;20720;48.886;9.388;2023-04-24T12:49:49;1.90;;;0.80;;
34481;SDS011;20720;48.886;9.388;2023-04-24T12:52:17;1.58;;;0.80;;
34481;SDS011;20720;48.886;9.388;2023-04-24T12:54:42;1.83;;;1.00;;
34481;SDS011;20720;48.886;9.388;2023-04-24T12:57:07;6.95;;;1.40;;
34481;SDS011;20720;48.886;9.388;2023-04-24T12:59:33;1.88;;;0.88;;
34481;SDS011;20720;48.886;9.388;2023-04-24T13:01:58;2.95;;;1.30;;
34481;SDS011;20720;48.886;9.388;2023-04-24T13:04:23;4.82;;;0.98;;
34481;SDS011;20720;48.886;9.388;2023-04-24T13:06:49;2.53;;;1.00;;
34481;SDS011;20720;48.886;9.388;2023-04-24T13:09:15;3.30;;;1.10;;
34481;SDS011;20720;48.886;9.388;2023-04-24T13:11:40;3.72;;;1.02;;
34481;SDS011;20720;48.886;9.388;2023-04-24T13:14:05;2.00;;;0.80;;
34481;SDS011;20720;48.886;9.388;2023-04-24T13:16:30;2.63;;;1.40;;
34481;SDS011;20720;48.886;9.388;2023-04-24T13:18:56;3.28;;;1.17;;
34481;SDS011;20720;48.886;9.388;2023-04-24T13:21:21;1.80;;;1.00;;
34481;SDS011;20720;48.886;9.388;2023-04-24T13:23:46;2.58;;;1.13;;
34481;SDS011;20720;48.886;9.388;2023-04-24T13:26:11;2.17;;;0.90;;
34481;SDS011;20720;48.886;9.388;2023-04-24T13:28:37;1.52;;;0.73;;
34481;SDS011;20720;48.886;9.388;2023-04-24T13:31:03;2.40;;;0.70;;
34481;SDS011;20720;48.886;9.388;2023-04-24T13:33:28;2.05;;;0.75;;
34481;SDS011;20720;48.886;9.388;2023-04-24T13:35:53;1.92;;;0.77;;
34481;SDS011;20720;48.886;9.388;2023-04-24T13:38:19;1.90;;;0.90;;
34481;SDS011;20720;48.886;9.388;2023-04-24T13:40:46;3.35;;;0.98;;
34481;SDS011;20720;48.886;9.388;2023-04-24T13:43:11;2.20;;;0.93;;
34481;SDS011;20720;48.886;9.388;2023-04-24T13:45:37;1.48;;;0.95;;
34481;SDS011;20720;48.886;9.388;2023-04-24T13:48:02;1.85;;;1.00;;
34481;SDS011;20720;48.886;9.388;2023-04-24T13:50:28;2.78;;;1.10;;
34481;SDS011;20720;48.886;9.388;2023-04-24T13:52:53;1.77;;;1.20;;
34481;SDS011;20720;48.886;9.388;2023-04-24T13:55:19;1.67;;;1.13;;
34481;SDS011;20720;48.886;9.388;2023-04-24T13:57:44;1.80;;;1.20;;
34481;SDS011;20720;48.886;9.388;2023-04-24T14:00:09;2.10;;;1.27;;
34481;SDS011;20720;48.886;9.388;2023-04-24T14:02:35;2.13;;;1.23;;
34481;SDS011;20720;48.886;9.388;2023-04-24T14:05:01;4.55;;;1.38;;
34481;SDS011;20720;48.886;9.388;2023-04-24T14:07:28;3.25;;;1.20;;
34481;SDS011;20720;48.886;9.388;2023-04-24T14:09:53;3.20;;;1.20;;
34481;SDS011;20720;48.886;9.388;2023-04-24T14:12:19;2.85;;;1.40;;
34481;SDS011;20720;48.886;9.388;2023-04-24T14:14:46;2.88;;;1.40;;
34481;SDS011;20720;48.886;9.388;2023-04-24T14:17:13;3.20;;;1.33;;
34481;SDS011;20720;48.886;9.388;2023-04-24T14:19:38;2.63;;;0.98;;
34481;SDS011;20720;48.886;9.388;2023-04-24T14:22:03;2.83;;;1.00;;
34481;SDS011;20720;48.886;9.388;2023-04-24T14:24:29;2.03;;;0.85;;
34481;SDS011;20720;48.886;9.388;2023-04-24T14:26:54;1.50;;;1.00;;
34481;SDS011;20720;48.886;9.388;2023-04-24T14:29:19;2.42;;;1.05;;
34481;SDS011;20720;48.886;9.388;2023-04-24T14:31:44;2.13;;;1.00;;
34481;SDS011;20720;48.886;9.388;2023-04-24T14:34:10;2.13;;;0.90;;
34481;SDS011;20720;48.886;9.388;2023-04-24T14:36:36;2.55;;;0.90;;
34481;SDS011;20720;48.886;9.388;2023-04-24T14:39:02;2.40;;;0.75;;
34481;SDS011;20720;48.886;9.388;2023-04-24T14:41:31;3.33;;;0.93;;
34481;SDS011;20720;48.886;9.388;2023-04-24T14:44:02;1.58;;;0.70;;
34481;SDS011;20720;48.886;9.388;2023-04-24T14:46:28;1.10;;;0.73;;
34481;SDS011;20720;48.886;9.388;2023-04-24T14:48:54;2.25;;;0.90;;
34481;SDS011;20720;48.886;9.388;2023-04-24T14:51:20;1.90;;;0.82;;
34481;SDS011;20720;48.886;9.388;2023-04-24T14:53:46;3.05;;;0.90;;
34481;SDS011;20720;48.886;9.388;2023-04-24T14:56:12;4.22;;;1.40;;
34481;SDS011;20720;48.886;9.388;2023-04-24T14:58:38;2.35;;;1.20;;